Time;durP1;ratioP1;P1;durP2;ratioP2;P2;SDS_P1;SDS_P2;PMS_P1;PMS_P2;Temp;Humidity;BMP_temperature;BMP_pressure;BME280_temperature;BME280_humidity;BME280_pressure;Samples;Min_cycle;Max_cycle;Signal;HPM_P1;HPM_P2
2022/04/27 00:00:10;;;;;;;14.43;9.60;;;;;;;6.32;100.00;101399.00;673274;29;1214;-78
2022/04/27 00:00:34;;;;;;;12.93;10.00;;;;;;;6.30;100.00;101404.16;674473;29;1306;-78
2022/04/27 00:00:55;;;;;;;13.60;10.07;;;;;;;6.28;100.00;101400.63;674410;29;1355;-79
2022/04/27 00:01:15;;;;;;;12.60;9.73;;;;;;;6.29;100.00;101406.72;674212;29;1312;-78
2022/04/27 00:01:35;;;;;;;13.27;10.03;;;;;;;6.28;100.00;101408.41;673603;29;1452;-79
2022/04/27 00:01:56;;;;;;;12.63;10.15;;;;;;;6.27;100.00;101408.38;674093;29;1070;-78
2022/04/27 00:02:16;;;;;;;13.50;10.50;;;;;;;6.25;100.00;101400.56;673645;29;4316;-79
2022/04/27 00:02:37;;;;;;;13.15;10.10;;;;;;;6.26;100.00;101398.88;671681;29;1442;-79
2022/04/27 00:02:57;;;;;;;14.07;10.53;;;;;;;6.28;100.00;101402.38;671305;29;1333;-79
2022/04/27 00:03:18;;;;;;;14.30;10.52;;;;;;;6.26;100.00;101406.66;671137;29;1399;-79
2022/04/27 00:03:38;;;;;;;13.40;10.13;;;;;;;6.24;100.00;101408.31;670233;29;1606;-78
2022/04/27 00:03:59;;;;;;;14.37;10.70;;;;;;;6.26;100.00;101397.13;668668;29;1330;-79
2022/04/27 00:04:19;;;;;;;14.13;11.10;;;;;;;6.25;100.00;101402.28;670721;29;1308;-78
2022/04/27 00:04:39;;;;;;;13.83;10.77;;;;;;;6.29;100.00;101407.59;666209;29;1252;-78
2022/04/27 00:05:00;;;;;;;13.13;10.13;;;;;;;6.30;100.00;101395.50;667342;29;1345;-79
2022/04/27 00:05:23;;;;;;;13.35;9.93;;;;;;;6.30;100.00;101401.56;668621;29;4326;-79
2022/04/27 00:05:44;;;;;;;14.55;10.20;;;;;;;6.29;100.00;101405.00;670981;29;1044;-79
2022/04/27 00:06:05;;;;;;;13.50;10.02;;;;;;;6.28;100.00;101410.16;671285;29;1431;-78
2022/04/27 00:06:25;;;;;;;12.82;9.75;;;;;;;6.27;100.00;101405.78;669171;29;985;-79
2022/04/27 00:06:46;;;;;;;14.13;9.75;;;;;;;6.25;100.00;101405.75;668409;29;1179;-79
2022/04/27 00:07:07;;;;;;;14.33;9.87;;;;;;;6.23;100.00;101407.47;673585;29;1301;-79
2022/04/27 00:07:28;;;;;;;13.43;10.20;;;;;;;6.22;100.00;101399.63;672058;29;1044;-79
2022/04/27 00:07:51;;;;;;;14.50;10.57;;;;;;;6.22;100.00;101397.03;673818;29;1285;-79
2022/04/27 00:08:12;;;;;;;11.98;9.73;;;;;;;6.21;100.00;101396.13;672245;29;4352;-78
2022/04/27 00:08:32;;;;;;;12.43;9.73;;;;;;;6.22;100.00;101399.63;670308;29;1167;-79
2022/04/27 00:08:53;;;;;;;13.67;10.00;;;;;;;6.21;100.00;101408.25;670394;29;1375;-78
2022/04/27 00:09:13;;;;;;;12.23;9.67;;;;;;;6.20;100.00;101406.50;671315;29;1321;-79
2022/04/27 00:09:34;;;;;;;14.47;10.30;;;;;;;6.21;100.00;101403.94;671176;29;1124;-79
2022/04/27 00:09:54;;;;;;;14.13;9.80;;;;;;;6.20;100.00;101396.97;671851;29;1308;-78
2022/04/27 00:10:15;;;;;;;14.57;9.97;;;;;;;6.20;100.00;101401.28;673748;29;1305;-78
2022/04/27 00:10:35;;;;;;;16.42;9.82;;;;;;;6.19;100.00;101404.72;672762;29;1187;-79
2022/04/27 00:10:55;;;;;;;14.20;10.13;;;;;;;6.20;100.00;101432.44;669744;29;1228;-78
2022/04/27 00:11:16;;;;;;;13.57;10.05;;;;;;;6.22;100.00;101405.69;670519;29;4495;-79
2022/04/27 00:11:36;;;;;;;13.23;9.87;;;;;;;6.25;100.00;101410.09;670379;29;1329;-78
2022/04/27 00:12:00;;;;;;;13.98;10.25;;;;;;;6.25;100.00;101400.56;671165;29;1813;-79
2022/04/27 00:12:21;;;;;;;13.52;10.20;;;;;;;6.27;100.00;101403.19;668322;29;1226;-78
2022/04/27 00:12:41;;;;;;;13.65;9.93;;;;;;;6.26;100.00;101397.13;668428;29;1599;-79
2022/04/27 00:13:02;;;;;;;14.37;10.43;;;;;;;6.26;100.00;101401.47;669447;29;1180;-78
2022/04/27 00:13:25;;;;;;;16.90;10.48;;;;;;;6.25;100.00;101403.16;668820;29;1371;-78
2022/04/27 00:13:46;;;;;;;14.98;10.35;;;;;;;6.25;100.00;101389.31;671760;29;1427;-78
2022/04/27 00:14:06;;;;;;;13.85;10.45;;;;;;;6.26;100.00;101402.34;670093;29;4490;-78
2022/04/27 00:14:29;;;;;;;13.47;9.93;;;;;;;6.26;100.00;101396.28;671599;29;1448;-79
2022/04/27 00:14:49;;;;;;;15.93;10.27;;;;;;;6.28;100.00;101397.16;670893;29;892;-79
2022/04/27 00:15:13;;;;;;;13.18;9.93;;;;;;;6.30;100.00;101404.16;676483;29;1339;-79
2022/04/27 00:15:33;;;;;;;12.90;9.82;;;;;;;6.31;100.00;101397.25;676520;29;1426;-79
2022/04/27 00:15:54;;;;;;;13.32;9.35;;;;;;;6.32;100.00;101400.72;675088;29;1388;-78
2022/04/27 00:16:14;;;;;;;15.20;10.03;;;;;;;6.30;100.00;101395.50;670466;29;1710;-78
2022/04/27 00:16:35;;;;;;;14.13;9.55;;;;;;;6.33;100.00;101399.88;669212;29;1552;-79
2022/04/27 00:16:56;;;;;;;14.10;10.10;;;;;;;6.34;100.00;101399.94;670835;29;1153;-78
2022/04/27 00:17:17;;;;;;;13.18;9.90;;;;;;;6.37;100.00;101401.69;672852;29;4390;-79
2022/04/27 00:17:37;;;;;;;13.80;10.07;;;;;;;6.34;100.00;101397.34;675038;29;1740;-79
2022/04/27 00:17:58;;;;;;;14.90;10.35;;;;;;;6.32;100.00;101395.53;674682;29;1320;-78
2022/04/27 00:18:18;;;;;;;14.10;10.20;;;;;;;6.31;100.00;101397.25;673276;29;1285;-78
2022/04/27 00:18:40;;;;;;;14.07;10.17;;;;;;;6.29;100.00;101393.75;672917;29;1316;-78
2022/04/27 00:19:01;;;;;;;13.23;10.13;;;;;;;6.29;100.00;101392.00;670824;29;1330;-79
2022/04/27 00:19:22;;;;;;;13.15;10.23;;;;;;;6.31;100.00;101397.25;672299;29;1178;-78
2022/04/27 00:19:42;;;;;;;13.38;10.40;;;;;;;6.33;100.00;101392.06;668674;29;1436;-80
2022/04/27 00:20:04;;;;;;;12.97;10.10;;;;;;;6.34;100.00;101394.75;668780;29;4425;-79
2022/04/27 00:20:24;;;;;;;12.38;10.10;;;;;;;6.34;100.00;101397.34;672877;29;1358;-79
2022/04/27 00:20:45;;;;;;;13.57;9.98;;;;;;;6.35;100.00;101404.25;669987;29;1316;-79
2022/04/27 00:21:05;;;;;;;13.80;9.67;;;;;;;6.32;100.00;101399.00;672397;29;1070;-79
2022/04/27 00:21:26;;;;;;;12.80;9.90;;;;;;;6.32;100.00;101388.63;665701;29;1162;-79
2022/04/27 00:21:46;;;;;;;13.87;10.27;;;;;;;6.33;100.00;101392.97;670820;29;1325;-79
2022/04/27 00:22:06;;;;;;;14.27;9.98;;;;;;;6.32;100.00;101393.81;668203;29;1448;-78
2022/04/27 00:22:27;;;;;;;15.07;10.00;;;;;;;6.34;100.00;101394.75;671221;29;1272;-79
2022/04/27 00:22:48;;;;;;;11.55;9.73;;;;;;;6.33;100.00;101395.56;673810;29;1816;-79
2022/04/27 00:23:08;;;;;;;13.70;9.93;;;;;;;6.33;100.00;101397.28;670488;29;4420;-79
2022/04/27 00:23:32;;;;;;;14.60;10.10;;;;;;;6.32;100.00;101393.81;673345;29;933;-79
2022/04/27 00:23:52;;;;;;;14.68;10.75;;;;;;;6.34;100.00;101399.03;672719;29;1085;-79
2022/04/27 00:24:12;;;;;;;13.63;10.33;;;;;;;6.34;100.00;101399.03;673159;29;1389;-79
2022/04/27 00:24:33;;;;;;;13.67;10.63;;;;;;;6.33;100.00;101398.16;671178;29;1309;-78
2022/04/27 00:24:53;;;;;;;12.95;10.02;;;;;;;6.34;100.00;101394.75;671227;29;1238;-78
2022/04/27 00:25:14;;;;;;;14.13;9.85;;;;;;;6.37;100.00;101400.00;670832;29;933;-78
2022/04/27 00:25:35;;;;;;;13.27;10.37;;;;;;;6.37;100.00;101399.09;671925;29;1147;-79
2022/04/27 00:25:55;;;;;;;15.85;10.55;;;;;;;6.44;100.00;101408.81;671359;29;1282;-78
2022/04/27 00:26:15;;;;;;;17.27;10.13;;;;;;;6.46;100.00;101397.59;673962;29;4330;-78
2022/04/27 00:26:37;;;;;;;13.73;10.00;;;;;;;6.58;100.00;101398.75;674874;29;1309;-78
2022/04/27 00:26:57;;;;;;;13.73;9.77;;;;;;;6.55;100.00;101393.47;676000;29;1399;-78
2022/04/27 00:27:18;;;;;;;13.45;9.45;;;;;;;6.54;100.00;101399.53;669432;29;1329;-78
2022/04/27 00:27:38;;;;;;;11.27;9.47;;;;;;;6.50;100.00;101401.16;672770;29;1362;-78
2022/04/27 00:27:59;;;;;;;13.18;9.93;;;;;;;6.46;100.00;101396.75;670769;29;1233;-78
2022/04/27 00:28:20;;;;;;;12.77;9.60;;;;;;;6.45;100.00;101395.88;673826;29;1055;-79
2022/04/27 00:28:40;;;;;;;12.13;9.83;;;;;;;6.43;100.00;101399.28;672547;29;1246;-79
2022/04/27 00:29:01;;;;;;;12.85;10.00;;;;;;;6.39;100.00;101403.50;671072;29;4333;-78
2022/04/27 00:29:21;;;;;;;12.70;10.07;;;;;;;6.39;100.00;101395.72;671155;29;1540;-79
2022/04/27 00:29:42;;;;;;;12.70;9.87;;;;;;;6.39;100.00;101395.72;671878;29;1175;-79
2022/04/27 00:30:03;;;;;;;12.23;9.60;;;;;;;6.39;100.00;101405.22;672802;29;1365;-78
2022/04/27 00:30:24;;;;;;;14.05;9.90;;;;;;;6.39;100.00;101403.50;673196;29;1582;-78
2022/04/27 00:30:44;;;;;;;14.07;10.10;;;;;;;6.34;100.00;101412.91;675236;29;1343;-78
2022/04/27 00:31:05;;;;;;;11.73;10.30;;;;;;;6.32;100.00;101393.81;673353;29;1358;-78
2022/04/27 00:31:25;;;;;;;12.53;10.10;;;;;;;6.32;100.00;101404.19;668056;29;1285;-79
2022/04/27 00:31:45;;;;;;;13.43;10.17;;;;;;;6.33;100.00;101412.84;670870;29;1456;-79
2022/04/27 00:32:06;;;;;;;12.88;9.80;;;;;;;6.31;100.00;101399.84;669645;29;4372;-79
2022/04/27 00:32:27;;;;;;;12.68;10.00;;;;;;;6.29;100.00;101397.22;671307;29;1005;-78
2022/04/27 00:32:47;;;;;;;13.37;10.10;;;;;;;6.27;100.00;101398.91;671200;29;1176;-78
2022/04/27 00:33:09;;;;;;;13.30;10.37;;;;;;;6.27;100.00;101395.41;670690;29;1164;-78
2022/04/27 00:33:31;;;;;;;13.68;10.60;;;;;;;6.26;100.00;101391.06;670253;29;1482;-78
2022/04/27 00:33:51;;;;;;;13.50;10.70;;;;;;;6.25;100.00;101400.56;671087;29;1398;-79
2022/04/27 00:34:12;;;;;;;14.30;10.23;;;;;;;6.26;100.00;101412.72;668964;29;4900;-78
2022/04/27 00:34:32;;;;;;;15.93;10.48;;;;;;;6.23;100.00;101399.66;670848;29;1361;-78
2022/04/27 00:34:53;;;;;;;14.17;10.70;;;;;;;6.22;100.00;101403.09;671521;29;1501;-78
2022/04/27 00:35:13;;;;;;;13.85;10.82;;;;;;;6.22;100.00;101407.41;671202;29;4337;-79
2022/04/27 00:35:34;;;;;;;14.32;10.63;;;;;;;6.22;100.00;101405.69;670581;29;1290;-78
2022/04/27 00:35:54;;;;;;;13.50;10.40;;;;;;;6.23;100.00;101414.34;666539;29;1471;-78
2022/04/27 00:36:14;;;;;;;13.27;10.57;;;;;;;6.22;100.00;101408.28;670548;29;1334;-79
2022/04/27 00:36:35;;;;;;;12.93;9.75;;;;;;;6.22;100.00;101407.41;669904;29;1102;-78
2022/04/27 00:36:56;;;;;;;12.05;9.95;;;;;;;6.24;100.00;101410.91;669734;29;1534;-78
2022/04/27 00:37:18;;;;;;;12.70;10.27;;;;;;;6.21;100.00;101409.13;672215;29;1442;-78
2022/04/27 00:37:38;;;;;;;16.58;11.15;;;;;;;6.19;100.00;101421.19;670974;29;1198;-78
2022/04/27 00:37:59;;;;;;;15.57;10.57;;;;;;;6.17;100.00;101407.28;671252;29;1011;-78
2022/04/27 00:38:19;;;;;;;13.43;10.57;;;;;;;6.19;100.00;101405.63;667471;29;4464;-78
2022/04/27 00:38:40;;;;;;;13.52;10.30;;;;;;;6.22;100.00;101415.22;670270;29;1158;-78
2022/04/27 00:39:03;;;;;;;13.55;10.60;;;;;;;6.20;100.00;101411.69;670025;29;1241;-78
2022/04/27 00:39:24;;;;;;;13.57;10.35;;;;;;;6.20;100.00;101411.69;674077;29;1645;-78
2022/04/27 00:39:48;;;;;;;14.53;10.33;;;;;;;6.20;100.00;101406.50;671493;29;1206;-78
2022/04/27 00:40:12;;;;;;;14.55;10.63;;;;;;;6.19;100.00;101425.50;668489;29;1365;-79
2022/04/27 00:40:33;;;;;;;13.65;10.45;;;;;;;6.18;100.00;101403.84;671906;29;1020;-78
2022/04/27 00:40:53;;;;;;;13.48;10.10;;;;;;;6.19;100.00;101404.72;670743;29;1341;-79
2022/04/27 00:41:13;;;;;;;15.57;10.23;;;;;;;6.21;100.00;101408.25;671052;29;4296;-78
2022/04/27 00:41:34;;;;;;;15.32;10.93;;;;;;;6.21;100.00;101413.44;669891;29;1214;-79
2022/04/27 00:42:00;;;;;;;15.43;10.97;;;;;;;6.19;100.00;101415.09;670333;29;1012;-78
2022/04/27 00:42:21;;;;;;;15.38;10.98;;;;;;;6.18;100.00;101411.66;672001;29;1557;-79
2022/04/27 00:42:42;;;;;;;12.68;10.48;;;;;;;6.18;100.00;101418.56;673011;29;1262;-79
2022/04/27 00:43:04;;;;;;;12.20;9.77;;;;;;;6.20;100.00;101414.28;674184;29;1288;-79
2022/04/27 00:43:34;;;;;;;13.73;10.00;;;;;;;6.21;100.00;101413.44;674944;29;1359;-79
2022/04/27 00:43:55;;;;;;;12.82;10.43;;;;;;;6.20;100.00;101416.88;673859;29;1221;-78
2022/04/27 00:44:15;;;;;;;12.82;10.48;;;;;;;6.19;100.00;101410.81;673129;29;4494;-78
2022/04/27 00:44:37;;;;;;;13.03;10.30;;;;;;;6.19;100.00;101416.00;674479;29;1125;-78
2022/04/27 00:44:57;;;;;;;15.65;10.60;;;;;;;6.18;100.00;101409.03;671659;29;1067;-79
2022/04/27 00:45:17;;;;;;;13.90;10.60;;;;;;;6.19;100.00;101416.00;671258;29;1351;-78
2022/04/27 00:45:38;;;;;;;13.00;10.10;;;;;;;6.21;100.00;101413.44;673453;29;818;-79
2022/04/27 00:45:58;;;;;;;14.43;10.63;;;;;;;6.18;100.00;101414.25;676085;29;1464;-79
2022/04/27 00:46:19;;;;;;;13.50;10.25;;;;;;;6.19;100.00;101415.09;672907;29;1074;-79
2022/04/27 00:46:40;;;;;;;14.90;10.67;;;;;;;6.18;100.00;101418.56;671475;29;942;-78
2022/04/27 00:47:01;;;;;;;15.32;11.05;;;;;;;6.18;100.00;101411.66;670240;29;1261;-78
2022/04/27 00:47:22;;;;;;;13.40;10.65;;;;;;;6.18;100.00;101413.38;670844;29;4505;-78
2022/04/27 00:47:43;;;;;;;14.17;10.90;;;;;;;6.17;100.00;101422.84;674639;29;1215;-78
2022/04/27 00:48:04;;;;;;;13.32;10.52;;;;;;;6.19;100.00;101417.69;669420;29;1257;-78
2022/04/27 00:48:24;;;;;;;13.07;10.37;;;;;;;6.21;100.00;101416.03;666699;29;1440;-78
2022/04/27 00:48:45;;;;;;;12.98;10.20;;;;;;;6.20;100.00;101414.28;666934;29;965;-78
2022/04/27 00:49:05;;;;;;;13.50;10.48;;;;;;;6.20;100.00;101409.94;671456;29;1216;-78
2022/04/27 00:49:26;;;;;;;12.23;10.37;;;;;;;6.22;100.00;101421.28;668755;29;1180;-78
2022/04/27 00:49:52;;;;;;;14.65;10.57;;;;;;;6.25;100.00;101410.09;668853;29;1091;-79
2022/04/27 00:50:13;;;;;;;14.20;10.50;;;;;;;6.25;100.00;101410.94;672586;29;4366;-78
2022/04/27 00:50:33;;;;;;;13.15;10.40;;;;;;;6.27;100.00;101418.78;674828;29;1456;-79
2022/04/27 00:50:54;;;;;;;13.63;10.67;;;;;;;6.26;100.00;101415.31;671572;29;1365;-78
2022/04/27 00:51:24;;;;;;;13.45;10.65;;;;;;;6.27;100.00;101417.06;671797;29;1355;-78
2022/04/27 00:51:45;;;;;;;12.98;10.50;;;;;;;6.28;100.00;101415.34;667286;29;1307;-78
2022/04/27 00:52:05;;;;;;;12.85;10.48;;;;;;;6.28;100.00;101413.63;674055;29;1523;-78
2022/04/27 00:52:26;;;;;;;13.05;10.07;;;;;;;6.26;100.00;101417.03;675087;29;1304;-79
2022/04/27 00:52:47;;;;;;;13.13;10.50;;;;;;;6.25;100.00;101418.75;674227;29;3398;-79
2022/04/27 00:53:08;;;;;;;12.68;10.35;;;;;;;6.25;100.00;101415.28;672531;29;4322;-78
2022/04/27 00:53:29;;;;;;;13.98;10.27;;;;;;;6.23;100.00;101414.34;674215;29;1376;-78
2022/04/27 00:53:50;;;;;;;14.60;10.23;;;;;;;6.21;100.00;101416.91;671390;29;1312;-78
2022/04/27 00:54:12;;;;;;;13.23;10.32;;;;;;;6.20;100.00;101419.47;670437;29;1911;-79
2022/04/27 00:54:35;;;;;;;12.38;10.13;;;;;;;6.20;100.00;101416.88;673738;29;1696;-79
2022/04/27 00:54:56;;;;;;;14.77;10.43;;;;;;;6.20;100.00;101411.69;670176;29;1408;-79
2022/04/27 00:55:16;;;;;;;12.20;9.95;;;;;;;6.20;100.00;101422.06;671545;29;1332;-78
2022/04/27 00:55:37;;;;;;;13.43;10.13;;;;;;;6.21;100.00;101421.22;671590;29;1130;-78
2022/04/27 00:55:58;;;;;;;14.00;10.43;;;;;;;6.27;100.00;101423.97;674187;29;1331;-78
2022/04/27 00:56:21;;;;;;;15.10;10.20;;;;;;;6.30;100.00;101416.28;675421;29;4320;-78
2022/04/27 00:56:42;;;;;;;13.40;10.15;;;;;;;6.28;100.00;101418.81;674392;29;1449;-78
2022/04/27 00:57:03;;;;;;;13.63;10.30;;;;;;;6.29;100.00;101417.97;674882;29;1196;-78
2022/04/27 00:57:24;;;;;;;14.07;10.48;;;;;;;6.28;100.00;101415.34;675425;29;1272;-78
2022/04/27 00:57:47;;;;;;;15.02;10.80;;;;;;;6.28;100.00;101420.53;674843;29;1319;-79
2022/04/27 00:58:09;;;;;;;13.80;10.65;;;;;;;6.28;100.00;101429.19;674194;29;1365;-78
2022/04/27 00:58:29;;;;;;;14.07;10.70;;;;;;;6.28;100.00;101415.34;674980;29;1318;-78
2022/04/27 00:58:50;;;;;;;12.93;10.30;;;;;;;6.26;100.00;101422.25;676259;29;1190;-79
2022/04/27 00:59:10;;;;;;;14.13;10.48;;;;;;;6.23;100.00;101423.03;671425;29;4356;-78
2022/04/27 00:59:31;;;;;;;14.90;10.73;;;;;;;6.24;100.00;101421.31;667845;29;1363;-78
2022/04/27 00:59:53;;;;;;;13.85;10.30;;;;;;;6.23;100.00;101436.03;668150;29;1211;-79
2022/04/27 01:00:15;;;;;;;13.35;9.93;;;;;;;6.25;100.00;101423.94;673250;29;1705;-78
2022/04/27 01:00:35;;;;;;;12.75;10.50;;;;;;;6.24;100.00;101418.72;671781;29;1322;-78
2022/04/27 01:00:56;;;;;;;15.10;10.83;;;;;;;6.25;100.00;101413.56;668611;29;1175;-79
2022/04/27 01:01:16;;;;;;;15.30;10.93;;;;;;;6.24;100.00;101419.56;669739;29;1194;-79
2022/04/27 01:01:37;;;;;;;13.00;10.35;;;;;;;6.24;100.00;101423.91;673778;29;1485;-78
2022/04/27 01:01:57;;;;;;;14.97;10.73;;;;;;;6.21;100.00;101423.84;672757;29;1143;-78
2022/04/27 01:02:19;;;;;;;14.18;10.23;;;;;;;6.18;100.00;101418.56;669770;29;4332;-78
2022/04/27 01:02:40;;;;;;;13.60;10.60;;;;;;;6.14;100.00;101413.28;670691;29;957;-78
2022/04/27 01:03:01;;;;;;;15.30;10.85;;;;;;;6.12;100.00;101417.56;669362;29;1400;-78
2022/04/27 01:03:23;;;;;;;16.10;11.13;;;;;;;6.12;100.00;101422.75;671241;29;1165;-79
2022/04/27 01:03:43;;;;;;;14.32;10.93;;;;;;;6.11;100.00;101423.59;671024;29;1110;-78
2022/04/27 01:04:05;;;;;;;15.30;10.83;;;;;;;6.13;100.00;101426.22;668637;29;1480;-79
2022/04/27 01:04:26;;;;;;;14.68;10.52;;;;;;;6.14;100.00;101431.44;669184;29;1577;-79
2022/04/27 01:04:47;;;;;;;13.90;10.50;;;;;;;6.11;100.00;101418.41;670015;29;1574;-79
2022/04/27 01:05:09;;;;;;;14.05;10.82;;;;;;;6.13;100.00;101431.41;668222;29;4448;-79
2022/04/27 01:05:29;;;;;;;14.60;10.65;;;;;;;6.12;100.00;101416.69;673474;29;1436;-78
2022/04/27 01:05:51;;;;;;;15.48;11.02;;;;;;;6.14;100.00;101427.97;668821;29;1199;-78
2022/04/27 01:06:11;;;;;;;13.50;10.50;;;;;;;6.16;100.00;101422.81;672626;29;1908;-79
2022/04/27 01:06:33;;;;;;;13.38;10.20;;;;;;;6.17;100.00;101427.19;671768;29;1283;-78
2022/04/27 01:06:53;;;;;;;14.32;10.52;;;;;;;6.18;100.00;101432.41;668771;29;1211;-80
2022/04/27 01:07:14;;;;;;;14.30;10.80;;;;;;;6.18;100.00;101426.34;665763;29;1171;-79
2022/04/27 01:07:35;;;;;;;14.38;10.90;;;;;;;6.17;100.00;101428.06;667188;29;1214;-79
2022/04/27 01:08:00;;;;;;;14.07;11.20;;;;;;;6.16;100.00;101428.03;670942;29;1414;-78
2022/04/27 01:08:22;;;;;;;15.93;11.07;;;;;;;6.17;100.00;101424.59;668853;29;5123;-79
2022/04/27 01:08:43;;;;;;;16.15;10.68;;;;;;;6.16;100.00;101436.66;669882;29;1473;-78
2022/04/27 01:09:04;;;;;;;14.55;10.18;;;;;;;6.15;100.00;101427.16;670064;29;1498;-78
2022/04/27 01:09:25;;;;;;;14.85;10.25;;;;;;;6.14;100.00;101423.66;669161;29;1532;-78
2022/04/27 01:09:46;;;;;;;13.00;10.15;;;;;;;6.16;100.00;101426.28;665804;29;1729;-78
2022/04/27 01:10:09;;;;;;;12.60;10.02;;;;;;;6.17;100.00;101422.00;666049;29;1481;-78
2022/04/27 01:10:29;;;;;;;14.00;10.13;;;;;;;6.18;100.00;101422.03;670204;29;2276;-79
2022/04/27 01:10:50;;;;;;;15.70;10.80;;;;;;;6.19;100.00;101429.00;667593;29;1167;-79
2022/04/27 01:11:11;;;;;;;14.40;10.52;;;;;;;6.19;100.00;101430.69;670701;29;4408;-78
2022/04/27 01:11:38;;;;;;;15.90;10.75;;;;;;;6.19;100.00;101430.69;672474;29;1154;-78
2022/04/27 01:12:01;;;;;;;15.63;11.20;;;;;;;6.20;100.00;101428.13;673952;29;1298;-78
2022/04/27 01:12:21;;;;;;;15.45;10.57;;;;;;;6.22;100.00;101430.78;674099;29;1325;-79
2022/04/27 01:12:57;;;;;;;13.70;10.60;;;;;;;6.20;100.00;101427.25;673653;29;1348;-78
2022/04/27 01:13:17;;;;;;;13.27;10.63;;;;;;;6.20;100.00;101435.03;673544;29;1261;-79
2022/04/27 01:13:41;;;;;;;14.52;10.88;;;;;;;6.20;100.00;101437.66;670854;29;1443;-79
2022/04/27 01:14:05;;;;;;;15.10;11.13;;;;;;;6.21;100.00;101439.41;671779;29;1549;-79
2022/04/27 01:14:42;;;;;;;14.65;10.65;;;;;;;6.18;100.00;101429.81;670527;29;5248;-78
2022/04/27 01:15:03;;;;;;;13.40;10.57;;;;;;;6.18;100.00;101435.00;673128;29;1156;-78
2022/04/27 01:15:31;;;;;;;13.60;10.45;;;;;;;6.17;100.00;101422.84;673937;29;1396;-79
2022/04/27 01:15:51;;;;;;;13.55;10.73;;;;;;;6.18;100.00;101432.41;672568;29;1300;-78
2022/04/27 01:16:15;;;;;;;14.37;10.87;;;;;;;6.17;100.00;101432.38;671738;29;1173;-78
2022/04/27 01:16:35;;;;;;;14.52;10.38;;;;;;;6.16;100.00;101428.03;672808;29;1568;-78
2022/04/27 01:16:57;;;;;;;14.57;10.77;;;;;;;6.17;100.00;101432.38;673928;29;1286;-78
2022/04/27 01:17:21;;;;;;;14.45;10.60;;;;;;;6.17;100.00;101432.38;671938;29;4549;-78
2022/04/27 01:17:41;;;;;;;13.95;10.70;;;;;;;6.18;100.00;101427.22;671949;29;1058;-78
2022/04/27 01:18:03;;;;;;;13.88;10.60;;;;;;;6.19;100.00;101434.19;674313;29;1462;-78
2022/04/27 01:18:27;;;;;;;15.02;11.02;;;;;;;6.19;100.00;101430.69;671708;29;1471;-78
2022/04/27 01:18:48;;;;;;;12.93;10.90;;;;;;;6.20;100.00;101432.44;673449;29;1384;-78
2022/04/27 01:19:09;;;;;;;13.07;10.90;;;;;;;6.19;100.00;101428.09;674769;29;1299;-79
2022/04/27 01:19:29;;;;;;;15.02;10.70;;;;;;;6.19;100.00;101435.88;673671;29;1328;-79
2022/04/27 01:19:50;;;;;;;13.90;11.07;;;;;;;6.18;100.00;101436.75;669663;29;1610;-78
2022/04/27 01:20:10;;;;;;;15.57;10.95;;;;;;;6.17;100.00;101429.78;671134;29;4314;-78
2022/04/27 01:20:45;;;;;;;15.73;10.60;;;;;;;6.14;100.00;101434.03;668765;29;1254;-78
2022/04/27 01:21:07;;;;;;;15.50;10.48;;;;;;;6.14;100.00;101427.97;671723;29;1722;-78
2022/04/27 01:21:37;;;;;;;16.58;10.50;;;;;;;6.18;100.00;101436.75;675508;29;1460;-78
2022/04/27 01:21:58;;;;;;;14.45;10.45;;;;;;;6.17;100.00;101437.56;673413;29;1095;-79
2022/04/27 01:22:18;;;;;;;14.90;10.80;;;;;;;6.18;100.00;101439.34;672904;29;1465;-79
2022/04/27 01:22:40;;;;;;;12.77;10.38;;;;;;;6.19;100.00;101433.28;670989;29;2134;-79
2022/04/27 01:23:01;;;;;;;14.37;11.00;;;;;;;6.19;100.00;101441.06;674549;29;1387;-79
2022/04/27 01:23:21;;;;;;;16.10;11.25;;;;;;;6.19;100.00;101435.88;672947;29;5083;-78
2022/04/27 01:23:42;;;;;;;15.32;10.85;;;;;;;6.20;100.00;101442.84;670063;29;1218;-78
2022/04/27 01:24:05;;;;;;;14.05;11.13;;;;;;;6.19;100.00;101438.47;673349;29;1552;-78
2022/04/27 01:24:25;;;;;;;13.30;10.80;;;;;;;6.19;100.00;101441.97;668787;29;1404;-79
2022/04/27 01:24:46;;;;;;;14.13;10.70;;;;;;;6.20;100.00;101442.84;671770;29;1692;-79
2022/04/27 01:25:08;;;;;;;15.80;11.00;;;;;;;6.19;100.00;101444.56;671712;29;1309;-78
2022/04/27 01:26:05;;;;;;;14.80;10.90;;;;;;;6.19;100.00;101435.88;669692;29;1548;-78
2022/04/27 01:26:25;;;;;;;16.75;10.80;;;;;;;6.21;100.00;101444.59;668734;29;4934;-78
2022/04/27 01:26:47;;;;;;;15.37;10.90;;;;;;;6.21;100.00;101444.59;672731;29;1165;-78
2022/04/27 01:27:08;;;;;;;14.40;10.75;;;;;;;6.22;100.00;101442.03;673466;29;1218;-78
2022/04/27 01:27:31;;;;;;;14.23;11.10;;;;;;;6.20;100.00;101443.69;671019;29;1304;-78
2022/04/27 01:27:52;;;;;;;12.75;10.98;;;;;;;6.19;100.00;101441.97;671197;29;1243;-78
2022/04/27 01:28:13;;;;;;;15.10;10.80;;;;;;;6.18;100.00;101440.19;668102;29;1392;-78
2022/04/27 01:28:35;;;;;;;16.37;11.00;;;;;;;6.18;100.00;101442.81;671179;29;1187;-78
2022/04/27 01:28:56;;;;;;;13.73;10.88;;;;;;;6.18;100.00;101449.72;671889;29;1062;-79
2022/04/27 01:29:18;;;;;;;13.55;10.82;;;;;;;6.16;100.00;101439.28;668118;29;4441;-78
2022/04/27 01:29:38;;;;;;;17.13;11.13;;;;;;;6.17;100.00;101442.75;671284;29;1186;-78
2022/04/27 01:29:59;;;;;;;18.50;11.33;;;;;;;6.18;100.00;101444.53;671365;29;1116;-78
2022/04/27 01:30:19;;;;;;;15.90;10.50;;;;;;;6.18;100.00;101442.81;674673;29;1435;-78
2022/04/27 01:30:40;;;;;;;13.90;11.10;;;;;;;6.18;100.00;101439.34;673647;29;1370;-79
2022/04/27 01:31:09;;;;;;;15.30;11.07;;;;;;;6.17;100.00;101437.56;672213;29;1208;-78
2022/04/27 01:31:29;;;;;;;15.95;10.75;;;;;;;6.20;100.00;101437.66;668676;29;1794;-79
2022/04/27 01:31:51;;;;;;;13.17;10.70;;;;;;;6.21;100.00;101442.00;674084;29;1306;-78
2022/04/27 01:32:12;;;;;;;13.23;10.70;;;;;;;6.20;100.00;101448.91;673064;29;4289;-78
2022/04/27 01:32:32;;;;;;;13.63;11.10;;;;;;;6.21;100.00;101442.88;670972;29;1369;-78
2022/04/27 01:32:53;;;;;;;14.00;10.82;;;;;;;6.21;100.00;101444.59;669168;29;1487;-78
2022/04/27 01:33:13;;;;;;;14.07;10.93;;;;;;;6.20;100.00;101446.28;669394;29;1308;-78
2022/04/27 01:33:35;;;;;;;14.90;10.63;;;;;;;6.20;100.00;101438.50;670833;29;1299;-78
2022/04/27 01:33:55;;;;;;;17.00;10.70;;;;;;;6.21;100.00;101442.00;674003;29;1778;-78
2022/04/27 01:34:17;;;;;;;14.93;10.82;;;;;;;6.22;100.00;101438.56;673306;29;4964;-78
2022/04/27 01:34:38;;;;;;;13.23;10.77;;;;;;;6.20;100.00;101438.50;673515;29;1440;-78
2022/04/27 01:35:01;;;;;;;12.85;10.77;;;;;;;6.21;100.00;101442.00;674548;29;1332;-78
2022/04/27 01:35:21;;;;;;;14.27;11.00;;;;;;;6.19;100.00;101441.97;669943;29;4419;-78
2022/04/27 01:35:41;;;;;;;14.63;11.00;;;;;;;6.22;100.00;101443.78;673227;29;1448;-78
2022/04/27 01:36:08;;;;;;;13.20;10.77;;;;;;;6.21;100.00;101444.59;674528;29;1647;-79
2022/04/27 01:36:28;;;;;;;14.13;10.63;;;;;;;6.21;100.00;101445.47;671893;29;2112;-78
2022/04/27 01:36:49;;;;;;;14.47;10.83;;;;;;;6.22;100.00;101433.38;673328;29;1330;-78
2022/04/27 01:38:00;;;;;;;12.90;11.15;;;;;;;6.21;100.00;101445.47;674487;29;1278;-78
2022/04/27 01:38:20;;;;;;;14.55;11.40;;;;;;;6.21;100.00;101445.47;666718;29;4306;-78
2022/04/27 01:38:43;;;;;;;14.63;11.10;;;;;;;6.21;100.00;101435.09;670510;29;1297;-79
2022/04/27 01:39:04;;;;;;;14.23;11.07;;;;;;;6.23;100.00;101442.91;670049;29;1451;-78
2022/04/27 01:39:25;;;;;;;15.13;11.68;;;;;;;6.22;100.00;101435.97;674691;29;1322;-78
2022/04/27 01:39:45;;;;;;;13.87;11.43;;;;;;;6.19;100.00;101441.97;669539;29;1290;-79
2022/04/27 01:40:07;;;;;;;13.50;11.20;;;;;;;6.19;100.00;101435.88;665199;29;1187;-79
2022/04/27 01:40:27;;;;;;;15.93;11.30;;;;;;;6.19;100.00;101439.38;668245;29;1048;-78
2022/04/27 01:40:53;;;;;;;15.80;11.10;;;;;;;6.22;100.00;101444.63;669368;29;1286;-78
2022/04/27 01:41:13;;;;;;;14.77;10.90;;;;;;;6.20;100.00;101445.44;668827;29;4317;-79